Latest Weather Observations for Viewbank

IDV60901

Issued at 3:31 pm EDT Friday 19 December 2014 (issued every 10 minutes, with the page automatically refreshed every 10 minutes)

About weather observations | Map of Melbourne area stations | Latest observations for Melbourne area | Other Formats
Station Details ID: 086068 Name: VIEWBANK Lat: -37.74 Lon: 145.10 Height: 66.1 m
Data from the previous 72 hours. | See also: Recent months at Viewbank
Date/Time
EDT
Tmp

°C
App
Tmp
°C
Dew
Point
°C
Rel
Hum
%
Delta-T

°C
Wind Press
QNH
hPa
Press
MSL
hPa
Rain
since
9 am
mm
Dir
 
Spd
km/h
Gust
km/h
Spd
kts
Gust
kts
19/03:30pm 20.3 16.8 7.3 43 6.6 S 15 30 8 16 1017.3 1017.1 0.0
19/03:00pm 19.2 14.9 5.3 40 6.8 S 17 28 9 15 1017.3 1017.1 0.0
19/02:30pm 19.5 15.3 5.9 41 6.7 SW 17 28 9 15 1017.6 1017.4 0.0
19/02:00pm 18.9 15.0 5.4 41 6.6 SSW 15 30 8 16 1017.4 1017.2 0.0
19/01:30pm 18.3 14.0 5.2 42 6.4 SW 17 28 9 15 1017.6 1017.4 0.0
19/01:00pm 18.2 14.8 7.6 50 5.4 S 15 28 8 15 1017.8 1017.6 0.0
19/12:30pm 15.7 11.3 7.2 57 4.2 SSW 20 32 11 17 1017.9 1017.7 0.0
19/12:00pm 16.2 11.7 6.3 52 4.8 SW 19 28 10 15 1017.7 1017.5 0.0
19/11:30am 16.9 12.9 6.7 51 5.0 SSW 17 26 9 14 1017.6 1017.4 0.0
19/11:00am 15.7 11.2 7.0 56 4.3 SW 20 32 11 17 1017.5 1017.3 0.0
19/10:30am 16.1 11.8 7.1 55 4.5 SW 19 28 10 15 1017.3 1017.1 0.0
19/10:00am 15.8 12.1 7.8 59 4.0 SW 17 26 9 14 1016.9 1016.7 0.0
19/09:30am 15.7 11.2 8.7 63 3.6 SW 22 33 12 18 1016.9 1016.7 0.0
19/09:00am 15.4 12.8 9.5 68 3.1 SW 13 22 7 12 1016.6 1016.4 4.2
19/08:30am 14.0 11.3 8.8 71 2.6 WSW 13 19 7 10 1016.5 1016.3 4.2
19/08:00am 12.7 10.1 9.2 79 1.8 WSW 13 22 7 12 1016.2 1016.0 4.2
19/07:30am 11.4 9.1 9.0 85 1.2 WSW 11 17 6 9 1016.0 1015.8 4.2
19/07:00am 10.5 9.0 9.3 92 0.6 W 7 15 4 8 1015.7 1015.5 4.2
19/06:30am 9.6 7.9 8.5 93 0.5 W 7 11 4 6 1015.5 1015.3 4.2
19/06:00am 9.5 7.8 8.3 92 0.6 WNW 7 13 4 7 1015.2 1015.0 4.2
19/05:30am 9.9 7.8 8.3 90 0.8 W 9 15 5 8 1014.9 1014.7 4.2
19/05:00am 10.0 7.9 8.4 90 0.8 W 9 15 5 8 1014.7 1014.5 4.2
19/04:30am 10.4 7.6 8.5 88 0.9 W 13 17 7 9 1014.2 1014.0 4.2
19/04:00am 10.5 8.5 8.6 88 0.9 W 9 13 5 7 1013.8 1013.6 4.2
19/03:30am 10.5 8.1 8.8 89 0.8 W 11 15 6 8 1013.7 1013.5 4.2
19/03:00am 10.7 8.7 8.6 87 1.0 W 9 13 5 7 1013.7 1013.5 4.2
19/02:30am 11.1 8.7 8.5 84 1.3 W 11 19 6 10 1013.6 1013.4 4.2
19/02:00am 11.4 9.0 8.6 83 1.4 W 11 15 6 8 1013.6 1013.4 4.2
19/01:30am 11.7 9.3 8.6 81 1.5 W 11 17 6 9 1013.6 1013.4 4.2
19/01:00am 11.9 9.5 8.6 80 1.6 W 11 17 6 9 1013.6 1013.4 4.2
19/12:30am 12.2 9.4 8.5 78 1.8 W 13 20 7 11 1013.5 1013.3 4.2
19/12:00am 12.3 10.5 9.3 82 1.5 W 9 15 5 8 1013.5 1013.3 4.2
 
Date/Time
EDT
Tmp

°C
App
Tmp
°C
Dew
Point
°C
Rel
Hum
%
Delta-T

°C
Wind Press
QNH
hPa
Press
MSL
hPa
Rain
since
9 am
mm
Dir
 
Spd
km/h
Gust
km/h
Spd
kts
Gust
kts
18/11:30pm 12.9 11.2 11.3 90 0.8 WSW 11 15 6 8 1013.3 1013.1 4.2
18/11:00pm 14.2 14.4 14.2 100 0.0 N 6 9 3 5 1013.3 1013.1 4.2
18/10:30pm 14.5 15.9 14.3 99 0.1 CALM 0 0 0 0 1013.0 1012.8 3.4
18/10:00pm 14.3 15.6 14.1 99 0.1 CALM 0 0 0 0 1012.7 1012.5 3.4
18/09:30pm 14.5 15.5 14.3 99 0.1 SW 2 9 1 5 1012.6 1012.4 3.4
18/09:00pm 14.7 14.9 13.2 91 0.8 SSW 4 6 2 3 1012.0 1011.9 3.0
18/08:30pm 14.7 15.1 12.4 86 1.3 WSW 2 7 1 4 1011.6 1011.5 3.0
18/08:00pm 15.3 14.8 12.8 85 1.4 WSW 7 11 4 6 1011.2 1011.1 3.0
18/07:30pm 15.4 14.6 12.9 85 1.4 WSW 9 15 5 8 1010.8 1010.7 3.0
18/07:00pm 15.5 15.2 12.6 83 1.6 WSW 6 9 3 5 1010.4 1010.3 2.8
18/06:30pm 15.4 14.5 12.5 83 1.6 W 9 13 5 7 1010.0 1009.9 2.8
18/06:00pm 14.6 14.5 13.8 95 0.4 WSW 7 13 4 7 1009.4 1009.3 2.8
18/05:30pm 14.3 13.9 14.1 99 0.1 SW 9 15 5 8 1009.4 1009.3 2.8
18/05:00pm 13.7 12.1 12.8 94 0.5 WSW 13 26 7 14 1009.4 1009.3 1.4
18/04:30pm 15.2 11.0 11.0 76 2.2 WSW 24 44 13 24 1008.7 1008.6 0.0
18/04:02pm 16.1 10.2 11.3 73 2.6 SW 33 52 18 28 1007.7 1007.5 0.0
18/04:00pm 16.0 10.4 11.4 74 2.5 SW 32 46 17 25 1007.5 1007.3 0.0
18/03:40pm 19.2 13.0 7.9 48 5.8 SSW 30 56 16 30 1006.3 1006.1 0.0
18/03:39pm 20.1 14.1 7.1 43 6.6 SSW 28 52 15 28 1006.0 1005.8 0.0
18/03:30pm 23.0 18.6 5.0 31 9.0 WSW 17 32 9 17 1005.5 1005.3 0.0
18/03:00pm 24.3 19.6 5.1 29 9.7 W 19 32 10 17 1005.3 1005.1 0.0
18/02:30pm 24.8 20.6 5.6 29 9.8 W 17 32 9 17 1005.2 1005.0 0.0
18/02:00pm 24.0 19.6 4.9 29 9.6 W 17 28 9 15 1005.1 1004.9 0.0
18/01:30pm 23.5 18.7 5.4 31 9.1 WSW 20 32 11 17 1005.5 1005.3 0.0
18/01:00pm 22.4 16.6 4.5 31 8.8 WSW 24 35 13 19 1005.6 1005.4 0.0
18/12:30pm 22.7 18.4 5.2 32 8.8 WSW 17 28 9 15 1005.6 1005.4 0.0
18/12:00pm 23.8 18.5 5.2 30 9.4 NW 22 39 12 21 1005.5 1005.3 0.0
18/11:30am 23.8 17.6 4.2 28 9.7 WNW 26 43 14 23 1005.5 1005.3 0.0
18/11:00am 24.6 19.7 4.9 28 10.0 WNW 20 39 11 21 1005.2 1005.0 0.0
18/10:30am 23.5 19.4 4.5 29 9.4 WNW 15 30 8 16 1005.4 1005.2 0.0
18/10:00am 21.8 17.4 4.8 33 8.4 WNW 17 26 9 14 1005.7 1005.5 0.0
18/09:30am 21.6 18.2 5.9 36 7.9 WNW 13 22 7 12 1005.8 1005.6 0.0
18/09:00am 18.1 17.0 8.4 53 5.0 SSW 4 9 2 5 1005.9 1005.7 0.0
18/08:30am 15.7 14.1 8.9 64 3.5 SW 7 9 4 5 1006.0 1005.8 0.0
18/08:00am 14.1 13.1 8.7 70 2.7 NE 4 7 2 4 1005.7 1005.5 0.0
18/07:30am 11.7 9.9 8.0 78 1.8 ENE 7 7 4 4 1005.8 1005.6 0.0
18/07:00am 10.5 10.0 7.9 84 1.3 CALM 0 0 0 0 1005.9 1005.7 0.0
18/06:30am 10.0 9.4 7.6 85 1.2 CALM 0 6 0 3 1005.8 1005.6 0.0
18/06:00am 9.3 7.8 6.9 85 1.1 NNE 4 7 2 4 1005.8 1005.6 0.0
18/05:30am 9.5 8.1 7.1 85 1.1 NE 4 7 2 4 1005.6 1005.4 0.0
18/05:00am 9.0 7.0 7.0 87 0.9 NE 7 9 4 5 1005.5 1005.3 0.0
18/04:30am 10.1 8.6 6.8 80 1.6 N 4 7 2 4 1005.7 1005.5 0.0
18/04:00am 10.4 8.9 6.7 78 1.8 NNE 4 7 2 4 1005.4 1005.2 0.0
18/03:30am 10.9 9.1 7.0 77 1.9 NNE 6 9 3 5 1005.6 1005.4 0.0
18/03:00am 11.6 9.6 6.9 73 2.3 N 7 9 4 5 1005.7 1005.5 0.0
18/02:30am 12.1 10.2 6.8 70 2.5 NNE 6 9 3 5 1005.8 1005.6 0.0
18/02:00am 12.4 11.6 6.7 68 2.7 CALM 0 0 0 0 1005.9 1005.7 0.0
18/01:30am 12.3 11.2 6.8 69 2.6 SW 2 6 1 3 1006.2 1006.0 0.0
18/01:00am 12.7 11.9 6.7 67 2.9 CALM 0 0 0 0 1006.4 1006.2 0.0
18/12:30am 13.0 12.2 6.6 65 3.1 CALM 0 0 0 0 1006.6 1006.4 0.0
18/12:00am 13.3 11.8 6.6 64 3.2 SSW 4 6 2 3 1006.9 1006.7 0.0
 
Date/Time
EDT
Tmp

°C
App
Tmp
°C
Dew
Point
°C
Rel
Hum
%
Delta-T

°C
Wind Press
QNH
hPa
Press
MSL
hPa
Rain
since
9 am
mm
Dir
 
Spd
km/h
Gust
km/h
Spd
kts
Gust
kts
17/11:30pm 13.7 11.8 6.6 62 3.4 SSW 6 9 3 5 1007.4 1007.2 0.0
17/11:00pm 14.1 12.2 6.7 61 3.6 S 6 9 3 5 1007.6 1007.4 0.0
17/10:30pm 14.7 12.6 6.8 59 3.9 S 7 13 4 7 1007.9 1007.8 0.0
17/10:00pm 15.0 12.5 6.6 57 4.1 SSE 9 19 5 10 1007.8 1007.6 0.0
17/09:30pm 15.8 12.9 6.5 54 4.5 SE 11 26 6 14 1008.0 1007.9 0.0
17/09:00pm 16.6 14.1 6.4 51 5.0 SE 9 22 5 12 1007.7 1007.5 0.0
17/08:30pm 17.7 14.4 6.3 47 5.6 SSE 13 26 7 14 1007.6 1007.4 0.0
17/08:00pm 18.8 15.8 6.0 43 6.3 SSE 11 19 6 10 1007.4 1007.2 0.0
17/07:30pm 19.9 16.9 5.9 40 7.0 SSE 11 20 6 11 1007.1 1006.9 0.0
17/07:00pm 20.5 17.0 5.3 37 7.5 SSE 13 22 7 12 1006.8 1006.6 0.0
17/06:30pm 21.7 18.0 4.3 32 8.5 S 13 19 7 10 1006.6 1006.4 0.0
17/06:00pm 22.1 18.4 4.2 31 8.8 SSW 13 20 7 11 1006.6 1006.4 0.0
17/05:30pm 22.0 18.3 4.6 32 8.6 S 13 22 7 12 1006.5 1006.3 0.0
17/05:00pm 21.8 17.9 3.5 30 8.8 S 13 22 7 12 1006.7 1006.5 0.0
17/04:30pm 21.9 18.8 3.6 30 8.8 SSE 9 15 5 8 1007.0 1006.8 0.0
17/04:00pm 21.2 17.7 3.4 31 8.5 ESE 11 19 6 10 1007.3 1007.1 0.0
17/03:30pm 21.2 18.4 3.0 30 8.6 ENE 7 15 4 8 1007.6 1007.4 0.0
17/03:00pm 21.2 17.3 3.4 31 8.5 SSE 13 19 7 10 1007.9 1007.8 0.0
17/02:30pm 20.6 17.8 2.9 31 8.3 NE 7 13 4 7 1008.2 1008.1 0.0
17/02:00pm 19.0 16.3 2.4 33 7.7 N 6 11 3 6 1008.6 1008.5 0.0
17/01:30pm 19.9 16.6 2.7 32 8.0 SSW 9 19 5 10 1008.8 1008.7 0.0
17/01:00pm 19.4 15.8 3.2 34 7.6 SSW 11 22 6 12 1009.2 1009.1 0.0
17/12:30pm 19.1 15.1 2.9 34 7.6 SSW 13 20 7 11 1009.4 1009.3 0.0
17/12:00pm 18.1 14.1 2.8 36 7.1 S 13 22 7 12 1009.4 1009.3 0.0
17/11:30am 19.3 15.5 3.9 36 7.3 SSW 13 26 7 14 1009.1 1009.0 0.0
17/11:00am 18.4 13.7 3.1 36 7.1 SSW 17 26 9 14 1009.3 1009.2 0.0
17/10:30am 17.2 12.3 4.2 42 6.1 SSW 19 30 10 16 1009.3 1009.2 0.0
17/10:00am 17.5 13.6 5.4 45 5.9 SSW 15 24 8 13 1009.3 1009.2 0.0
17/09:30am 15.2 11.2 5.1 51 4.8 SW 15 26 8 14 1009.3 1009.2 0.0
17/09:00am 15.6 11.7 5.5 51 4.8 WSW 15 26 8 14 1009.0 1008.9 0.0
17/08:30am 14.9 11.6 6.5 57 4.1 WSW 13 22 7 12 1008.8 1008.7 0.0
17/08:00am 14.1 10.9 6.9 62 3.5 WSW 13 19 7 10 1008.6 1008.5 0.0
17/07:30am 12.6 10.2 6.9 68 2.7 W 9 15 5 8 1008.3 1008.2 0.0
17/07:00am 11.4 9.6 7.1 75 2.1 W 6 11 3 6 1008.2 1008.1 0.0
17/06:30am 10.7 8.8 6.8 77 1.8 WNW 6 9 3 5 1007.8 1007.6 0.0
17/06:00am 10.5 8.6 6.5 76 1.9 NW 6 11 3 6 1007.3 1007.1 0.0
17/05:30am 10.7 8.5 6.3 74 2.1 W 7 9 4 5 1006.9 1006.7 0.0
17/05:00am 11.0 8.5 6.6 74 2.1 W 9 11 5 6 1006.7 1006.5 0.0
17/04:30am 11.2 9.1 6.5 73 2.2 W 7 11 4 6 1006.4 1006.2 0.0
17/04:00am 11.5 8.9 6.2 70 2.5 W 9 13 5 7 1006.3 1006.1 0.0
17/03:30am 11.7 9.1 6.2 69 2.6 W 9 15 5 8 1006.1 1005.9 0.0
17/03:00am 12.2 9.3 6.3 67 2.8 W 11 17 6 9 1006.2 1006.0 0.0
17/02:30am 12.4 9.0 6.0 65 3.0 W 13 20 7 11 1006.1 1005.9 0.0
17/02:00am 12.8 9.4 5.9 63 3.3 W 13 20 7 11 1005.9 1005.7 0.0
17/01:30am 13.0 9.6 5.9 62 3.4 W 13 20 7 11 1005.9 1005.7 0.0
17/01:00am 13.3 10.2 5.5 59 3.7 W 11 17 6 9 1005.8 1005.6 0.0
17/12:30am 13.8 9.1 5.2 56 4.0 WSW 19 28 10 15 1005.9 1005.7 0.0
17/12:00am 14.0 9.7 5.1 55 4.2 WSW 17 24 9 13 1005.9 1005.7 0.0
 
Date/Time
EDT
Tmp

°C
App
Tmp
°C
Dew
Point
°C
Rel
Hum
%
Delta-T

°C
Wind Press
QNH
hPa
Press
MSL
hPa
Rain
since
9 am
mm
Dir
 
Spd
km/h
Gust
km/h
Spd
kts
Gust
kts
16/11:30pm 14.6 10.6 4.9 52 4.5 WSW 15 20 8 11 1005.9 1005.7 0.0
16/11:00pm 14.4 10.8 5.0 53 4.4 SW 13 24 7 13 1005.6 1005.4 0.0
16/10:30pm 15.1 11.4 4.5 49 4.9 SW 13 22 7 12 1005.5 1005.3 0.0
16/10:00pm 15.7 9.1 4.1 46 5.4 WSW 28 44 15 24 1004.9 1004.7 0.0
16/09:37pm 16.2 9.6 4.3 45 5.6 WSW 28 48 15 26 1004.4 1004.2 0.0
16/09:30pm 16.5 10.3 4.2 44 5.8 WSW 26 41 14 22 1004.3 1004.1 0.0
16/09:00pm 17.2 10.3 2.8 38 6.6 WSW 28 43 15 23 1003.3 1003.1 0.0
16/08:40pm 17.3 10.5 2.9 38 6.6 WSW 28 46 15 25 1002.8 1002.6 0.0
16/08:30pm 17.2 13.0 5.5 46 5.7 W 17 28 9 15 1002.8 1002.6 0.0
16/08:00pm 17.5 10.1 5.1 44 6.0 WSW 33 56 18 30 1001.9 1001.7 0.0
16/07:30pm 17.4 10.0 5.0 44 6.0 WSW 33 69 18 37 1001.3 1001.1 0.0
16/07:00pm 19.5 11.0 6.9 44 6.4 W 41 78 22 42 1000.1 999.9 0.0
16/06:30pm 19.9 11.6 9.5 51 5.5 WSW 43 78 23 42 998.7 998.5 0.0
16/06:00pm 21.1 13.4 8.7 45 6.6 WSW 39 76 21 41 997.0 996.8 0.0
16/05:53pm 21.5 13.8 10.0 48 6.2 W 41 76 22 41 996.8 996.6 0.0
16/05:35pm 21.7 15.9 11.4 52 5.7 WSW 33 54 18 29 996.9 996.7 0.0
16/05:30pm 21.5 15.8 11.2 52 5.7 WSW 32 48 17 26 996.7 996.5 0.0
16/05:26pm 21.8 16.0 10.9 50 6.0 WSW 32 48 17 26 996.7 996.5 0.0
16/05:02pm 22.4 16.3 9.9 45 6.8 WSW 32 57 17 31 995.2 995.1 0.0
16/05:00pm 22.6 16.4 9.4 43 7.2 WSW 32 54 17 29 995.6 995.5 0.0
16/04:58pm 24.3 18.1 7.9 35 8.7 W 30 54 16 29 995.1 995.0 0.0
16/04:36pm 29.6 21.9 -2.8 12 14.7 WNW 28 52 15 28 993.7 993.5 0.0
16/04:30pm 29.5 22.2 -2.9 12 14.7 WNW 26 48 14 26 993.5 993.3 0.0
16/04:00pm 30.7 21.8 -1.9 12 15.3 NW 35 57 19 31 993.0 992.8 0.0
16/03:35pm 30.9 23.3 -1.8 12 15.3 NW 28 57 15 31 992.3 992.1 0.0

Latest Capital City Observations: Canberra | Sydney | Melbourne | Brisbane | Adelaide | Perth | Hobart | Darwin

Other Formats:

Comma delimited format used in spreadsheet applications
http://www.bom.gov.au/fwo/IDV60901/IDV60901.95874.axf

JavaScript Object Notation format (JSON) in row-major order
http://www.bom.gov.au/fwo/IDV60901/IDV60901.95874.json